createdAt,value
2023-04-14T00:00:35.455Z,51.215958
2023-04-14T00:01:35.467Z,51.215961
2023-04-14T00:02:35.559Z,51.216087
2023-04-14T00:03:35.563Z,51.216022
2023-04-14T00:04:35.603Z,51.216030
2023-04-14T00:05:35.444Z,51.216084
2023-04-14T00:06:35.419Z,51.216091
2023-04-14T00:07:35.421Z,51.216129
2023-04-14T00:08:35.399Z,51.216164
2023-04-14T00:09:35.417Z,51.216187
2023-04-14T00:10:35.406Z,51.216183
2023-04-14T00:11:35.397Z,51.216171
2023-04-14T00:12:35.374Z,51.216057
2023-04-14T00:13:35.376Z,51.216080
2023-04-14T00:14:35.369Z,51.216034
2023-04-14T00:15:35.367Z,51.216030
2023-04-14T00:16:35.393Z,51.216045
2023-04-14T00:17:35.407Z,51.216179
2023-04-14T00:18:35.351Z,51.216190
2023-04-14T00:19:35.344Z,51.216171
2023-04-14T00:20:35.353Z,51.216171
2023-04-14T00:21:35.319Z,51.216103
2023-04-14T00:22:35.323Z,51.216011
2023-04-14T00:23:35.312Z,51.216042
2023-04-14T00:24:35.305Z,51.216000
2023-04-14T00:25:35.315Z,51.216099
2023-04-14T00:26:35.310Z,51.216106
2023-04-14T00:27:35.285Z,51.216087
2023-04-14T00:28:35.273Z,51.216137
2023-04-14T00:29:35.285Z,51.216114
2023-04-14T00:30:35.260Z,51.216019
2023-04-14T00:31:35.355Z,51.216019
2023-04-14T00:32:35.274Z,51.216057
2023-04-14T00:33:35.237Z,51.216125
2023-04-14T00:34:35.238Z,51.216099
2023-04-14T00:35:35.237Z,51.216080
2023-04-14T00:36:35.228Z,51.216053
2023-04-14T00:37:35.233Z,51.216133
2023-04-14T00:38:35.222Z,51.216118
2023-04-14T00:39:35.223Z,51.216061
2023-04-14T00:40:35.208Z,51.216030
2023-04-14T00:41:35.196Z,51.216122
2023-04-14T00:42:35.188Z,51.216019
2023-04-14T00:43:35.201Z,51.215839
2023-04-14T00:44:35.177Z,51.215862
2023-04-14T00:45:35.180Z,51.215954
2023-04-14T00:46:35.181Z,51.216011
2023-04-14T00:47:35.229Z,51.215984
2023-04-14T00:48:35.167Z,51.216064
2023-04-14T00:49:35.138Z,51.216095
2023-04-14T00:50:35.137Z,51.216122
2023-04-14T00:51:35.143Z,51.216053
2023-04-14T00:52:35.157Z,51.216042
2023-04-14T00:53:35.122Z,51.216076
2023-04-14T00:54:35.116Z,51.216053
2023-04-14T00:55:35.209Z,51.216091
2023-04-14T00:56:35.121Z,51.216129
2023-04-14T00:57:35.157Z,51.216045
2023-04-14T00:58:35.112Z,51.216030
2023-04-14T00:59:35.079Z,51.216038
2023-04-14T01:00:35.092Z,51.216064
2023-04-14T01:01:35.091Z,51.216099
2023-04-14T01:02:35.244Z,51.216099
2023-04-14T01:03:35.264Z,51.216080
2023-04-14T01:04:49.604Z,51.216042
2023-04-14T01:05:37.061Z,51.216125
2023-04-14T01:06:35.047Z,51.216042
2023-04-14T01:07:35.030Z,51.216087
2023-04-14T01:08:35.053Z,51.216110
2023-04-14T01:09:35.021Z,51.216187
2023-04-14T01:10:35.016Z,51.216106
2023-04-14T01:11:35.005Z,51.216125
2023-04-14T01:12:35.023Z,51.216167
2023-04-14T01:13:35.012Z,51.216099
2023-04-14T01:14:34.995Z,51.216110
2023-04-14T01:15:35.005Z,51.216156
2023-04-14T01:16:35.096Z,51.216171
2023-04-14T01:17:35.040Z,51.216045
2023-04-14T01:18:34.966Z,51.216019
2023-04-14T01:19:34.966Z,51.216072
2023-04-14T01:20:34.977Z,51.216137
2023-04-14T01:21:34.949Z,51.216045
2023-04-14T01:22:34.934Z,51.216137
2023-04-14T01:23:34.930Z,51.216167
2023-04-14T01:24:34.930Z,51.216072
2023-04-14T01:25:34.911Z,51.216202
2023-04-14T01:26:34.924Z,51.216110
2023-04-14T01:27:34.887Z,51.216118
2023-04-14T01:28:35.896Z,51.216175
2023-04-14T01:29:34.894Z,51.216148
2023-04-14T01:30:34.897Z,51.216064
2023-04-14T01:31:34.911Z,51.216061
2023-04-14T01:32:34.915Z,51.216106
2023-04-14T01:33:34.872Z,51.216194
2023-04-14T01:34:34.879Z,51.216221
2023-04-14T01:35:34.857Z,51.216190
2023-04-14T01:36:34.855Z,51.216145
2023-04-14T01:37:34.830Z,51.216125
2023-04-14T01:38:34.830Z,51.216148
2023-04-14T01:39:34.817Z,51.216137
2023-04-14T01:40:34.817Z,51.216137
2023-04-14T01:41:34.819Z,51.216114
2023-04-14T01:42:34.804Z,51.216145
2023-04-14T01:43:34.801Z,51.216156
2023-04-14T01:44:34.795Z,51.216179
2023-04-14T01:45:34.837Z,51.216160
2023-04-14T01:46:34.818Z,51.216206
2023-04-14T01:47:34.818Z,51.216225
2023-04-14T01:48:34.778Z,51.216263
2023-04-14T01:49:34.827Z,51.216125
2023-04-14T01:50:34.775Z,51.216064
2023-04-14T01:51:34.792Z,51.216114
2023-04-14T01:52:34.741Z,51.216022
2023-04-14T01:53:34.739Z,51.216049
2023-04-14T01:54:34.750Z,51.216022
2023-04-14T01:55:34.740Z,51.216057
2023-04-14T01:56:34.746Z,51.216202
2023-04-14T01:57:34.730Z,51.216110
2023-04-14T01:58:34.709Z,51.216076
2023-04-14T01:59:34.695Z,51.216026
2023-04-14T02:00:34.692Z,51.215954
2023-04-14T02:01:34.794Z,51.216022
2023-04-14T02:02:34.853Z,51.215893
2023-04-14T02:03:34.768Z,51.216015
2023-04-14T02:04:34.674Z,51.216110
2023-04-14T02:05:34.679Z,51.215996
2023-04-14T02:06:34.679Z,51.216114
2023-04-14T02:07:34.672Z,51.216045
2023-04-14T02:08:34.649Z,51.215996
2023-04-14T02:09:34.645Z,51.216042
2023-04-14T02:10:34.628Z,51.216141
2023-04-14T02:11:34.641Z,51.216354
2023-04-14T02:12:34.620Z,51.216129
2023-04-14T02:13:34.631Z,51.216015
2023-04-14T02:14:34.607Z,51.215946
2023-04-14T02:15:34.595Z,51.216049
2023-04-14T02:16:34.614Z,51.216152
2023-04-14T02:17:34.621Z,51.216099
2023-04-14T02:18:34.676Z,51.216167
2023-04-14T02:19:34.564Z,51.216080
2023-04-14T02:20:34.566Z,51.215931
2023-04-14T02:21:34.572Z,51.216011
2023-04-14T02:22:34.573Z,51.215984
2023-04-14T02:23:34.542Z,51.215939
2023-04-14T02:24:34.690Z,51.215893
2023-04-14T02:25:34.553Z,51.215885
2023-04-14T02:26:34.520Z,51.215946
2023-04-14T02:27:34.550Z,51.215851
2023-04-14T02:28:34.513Z,51.215668
2023-04-14T02:29:34.505Z,51.215828
2023-04-14T02:30:34.534Z,51.215946
2023-04-14T02:31:34.489Z,51.215874
2023-04-14T02:32:34.508Z,51.215965
2023-04-14T02:33:34.501Z,51.216209
2023-04-14T02:34:36.223Z,51.215965
2023-04-14T02:35:34.478Z,51.215866
2023-04-14T02:36:34.479Z,51.215790
2023-04-14T02:37:34.461Z,51.215996
2023-04-14T02:38:34.468Z,51.215778
2023-04-14T02:39:34.443Z,51.215797
2023-04-14T02:40:34.449Z,51.215950
2023-04-14T02:41:34.671Z,51.215809
2023-04-14T02:42:34.429Z,51.215744
2023-04-14T02:43:34.420Z,51.215996
2023-04-14T02:44:34.439Z,51.216095
2023-04-14T02:45:34.424Z,51.216133
2023-04-14T02:46:34.493Z,51.216125
2023-04-14T02:47:34.471Z,51.215996
2023-04-14T02:48:34.415Z,51.215981
2023-04-14T02:49:34.391Z,51.215839
2023-04-14T02:50:34.378Z,51.216003
2023-04-14T02:51:34.369Z,51.216030
2023-04-14T02:52:34.378Z,51.216011
2023-04-14T02:53:35.362Z,51.216026
2023-04-14T02:54:34.364Z,51.216110
2023-04-14T02:55:34.346Z,51.216091
2023-04-14T02:56:34.365Z,51.215992
2023-04-14T02:57:34.333Z,51.215927
2023-04-14T02:58:34.334Z,51.215996
2023-04-14T02:59:34.310Z,51.215878
2023-04-14T03:00:35.317Z,51.215927
2023-04-14T03:01:34.327Z,51.216026
2023-04-14T03:02:34.363Z,51.216000
2023-04-14T03:03:34.378Z,51.216003
2023-04-14T03:04:34.321Z,51.215981
2023-04-14T03:05:34.294Z,51.215969
2023-04-14T03:06:34.272Z,51.215916
2023-04-14T03:07:34.278Z,51.215897
2023-04-14T03:08:35.061Z,51.215874
2023-04-14T03:09:34.258Z,51.215816
2023-04-14T03:10:34.258Z,51.215908
2023-04-14T03:11:34.254Z,51.215961
2023-04-14T03:12:34.237Z,51.216007
2023-04-14T03:13:34.235Z,51.216000
2023-04-14T03:14:34.256Z,51.215996
2023-04-14T03:15:34.227Z,51.216019
2023-04-14T03:16:35.360Z,51.216057
2023-04-14T03:17:34.261Z,51.215973
2023-04-14T03:18:34.237Z,51.216064
2023-04-14T03:19:34.196Z,51.215996
2023-04-14T03:20:34.200Z,51.216022
2023-04-14T03:21:34.184Z,51.216026
2023-04-14T03:22:34.176Z,51.216034
2023-04-14T03:23:34.191Z,51.216019
2023-04-14T03:24:34.164Z,51.216038
2023-04-14T03:25:34.173Z,51.216019
2023-04-14T03:26:34.166Z,51.216026
2023-04-14T03:27:34.140Z,51.216072
2023-04-14T03:28:37.091Z,51.216072
2023-04-14T03:29:34.135Z,51.216122
2023-04-14T03:30:34.135Z,51.216049
2023-04-14T03:31:34.166Z,51.216118
2023-04-14T03:32:34.140Z,51.216133
2023-04-14T03:33:34.099Z,51.216095
2023-04-14T03:34:34.102Z,51.216076
2023-04-14T03:35:34.084Z,51.216072
2023-04-14T03:36:34.076Z,51.216114
2023-04-14T03:37:34.070Z,51.216206
2023-04-14T03:38:34.074Z,51.216164
2023-04-14T03:39:34.116Z,51.216141
2023-04-14T03:40:34.050Z,51.216022
2023-04-14T03:41:34.043Z,51.216057
2023-04-14T03:42:34.041Z,51.216129
2023-04-14T03:43:34.044Z,51.216137
2023-04-14T03:44:34.043Z,51.216328
2023-04-14T03:45:34.014Z,51.216293
2023-04-14T03:46:34.063Z,51.216240
2023-04-14T03:47:34.052Z,51.216129
2023-04-14T03:48:33.998Z,51.216007
2023-04-14T03:49:33.992Z,51.216133
2023-04-14T03:50:34.004Z,51.215965
2023-04-14T03:51:33.972Z,51.216015
2023-04-14T03:52:33.993Z,51.216003
2023-04-14T03:53:33.969Z,51.216064
2023-04-14T03:54:33.966Z,51.216175
2023-04-14T03:55:34.003Z,51.216206
2023-04-14T03:56:33.962Z,51.216347
2023-04-14T03:57:33.941Z,51.216064
2023-04-14T03:58:33.937Z,51.216049
2023-04-14T03:59:33.936Z,51.216122
2023-04-14T04:00:33.974Z,51.216164
2023-04-14T04:01:33.994Z,51.216343
2023-04-14T04:02:34.026Z,51.215916
2023-04-14T04:03:34.061Z,51.216087
2023-04-14T04:04:33.939Z,51.216034
2023-04-14T04:05:33.896Z,51.216038
2023-04-14T04:06:33.886Z,51.215889
2023-04-14T04:07:33.855Z,51.216053
2023-04-14T04:08:34.886Z,51.215919
2023-04-14T04:09:33.859Z,51.216076
2023-04-14T04:10:33.847Z,51.216099
2023-04-14T04:11:33.871Z,51.216011
2023-04-14T04:12:33.847Z,51.215874
2023-04-14T04:13:33.823Z,51.215897
2023-04-14T04:14:33.847Z,51.216209
2023-04-14T04:15:33.819Z,51.216099
2023-04-14T04:16:33.843Z,51.216187
2023-04-14T04:17:33.894Z,51.216164
2023-04-14T04:18:33.801Z,51.216137
2023-04-14T04:19:33.806Z,51.216187
2023-04-14T04:20:33.784Z,51.216034
2023-04-14T04:21:33.769Z,51.216022
2023-04-14T04:22:33.790Z,51.216106
2023-04-14T04:23:33.774Z,51.216175
2023-04-14T04:24:33.770Z,51.216038
2023-04-14T04:25:33.767Z,51.216171
2023-04-14T04:26:35.813Z,51.216190
2023-04-14T04:27:33.742Z,51.216110
2023-04-14T04:28:33.740Z,51.216125
2023-04-14T04:29:33.746Z,51.216156
2023-04-14T04:30:33.719Z,51.216129
2023-04-14T04:31:33.748Z,51.216099
2023-04-14T04:32:33.761Z,51.216175
2023-04-14T04:33:33.708Z,51.216103
2023-04-14T04:34:33.716Z,51.216152
2023-04-14T04:35:33.689Z,51.216084
2023-04-14T04:36:33.715Z,51.216110
2023-04-14T04:37:33.688Z,51.216202
2023-04-14T04:38:33.697Z,51.216106
2023-04-14T04:39:33.660Z,51.216122
2023-04-14T04:40:33.672Z,51.216099
2023-04-14T04:41:33.656Z,51.216049
2023-04-14T04:42:33.641Z,51.216049
2023-04-14T04:43:33.680Z,51.216080
2023-04-14T04:44:33.643Z,51.216171
2023-04-14T04:45:33.620Z,51.216099
2023-04-14T04:46:33.775Z,51.216064
2023-04-14T04:47:33.681Z,51.216030
2023-04-14T04:48:33.604Z,51.216183
2023-04-14T04:49:33.599Z,51.216171
2023-04-14T04:50:33.595Z,51.216179
2023-04-14T04:51:33.611Z,51.216164
2023-04-14T04:52:33.617Z,51.216137
2023-04-14T04:53:33.590Z,51.216118
2023-04-14T04:54:34.564Z,51.216190
2023-04-14T04:55:33.574Z,51.216213
2023-04-14T04:56:33.567Z,51.216171
2023-04-14T04:57:33.580Z,51.216194
2023-04-14T04:58:33.556Z,51.216160
2023-04-14T04:59:33.871Z,51.216190
2023-04-14T05:00:33.530Z,51.216137
2023-04-14T05:01:33.620Z,51.216114
2023-04-14T05:02:33.637Z,51.216129
2023-04-14T05:03:33.601Z,51.216179
2023-04-14T05:04:33.583Z,51.216156
2023-04-14T05:05:33.498Z,51.216118
2023-04-14T05:06:33.537Z,51.216080
2023-04-14T05:07:33.476Z,51.216011
2023-04-14T05:08:33.500Z,51.215996
2023-04-14T05:09:33.498Z,51.215809
2023-04-14T05:10:33.482Z,51.215790
2023-04-14T05:11:33.461Z,51.215958
2023-04-14T05:12:33.465Z,51.216045
2023-04-14T05:13:33.449Z,51.216125
2023-04-14T05:14:33.452Z,51.216022
2023-04-14T05:15:33.503Z,51.216106
2023-04-14T05:16:33.454Z,51.216175
2023-04-14T05:17:33.474Z,51.216145
2023-04-14T05:18:33.421Z,51.216114
2023-04-14T05:19:33.442Z,51.216068
2023-04-14T05:20:34.921Z,51.216080
2023-04-14T05:21:34.395Z,51.216030
2023-04-14T05:22:33.407Z,51.216034
2023-04-14T05:23:33.393Z,51.216068
2023-04-14T05:24:33.393Z,51.216118
2023-04-14T05:25:33.373Z,51.216099
2023-04-14T05:26:51.910Z,51.216171
2023-04-14T05:27:35.370Z,51.216084
2023-04-14T05:28:33.366Z,51.216057
2023-04-14T05:29:33.374Z,51.215977
2023-04-14T05:30:33.342Z,51.215981
2023-04-14T05:31:33.391Z,51.216034
2023-04-14T05:32:33.350Z,51.216045
2023-04-14T05:33:33.496Z,51.216053
2023-04-14T05:34:33.336Z,51.216110
2023-04-14T05:35:33.319Z,51.216141
2023-04-14T05:36:33.299Z,51.216118
2023-04-14T05:37:35.043Z,51.216194
2023-04-14T05:38:33.317Z,51.216118
2023-04-14T05:39:33.286Z,51.216110
2023-04-14T05:40:33.298Z,51.216156
2023-04-14T05:41:33.278Z,51.216217
2023-04-14T05:42:33.279Z,51.216217
2023-04-14T05:43:33.323Z,51.216167
2023-04-14T05:44:33.278Z,51.216141
2023-04-14T05:45:33.282Z,51.216125
2023-04-14T05:46:33.373Z,51.216190
2023-04-14T05:47:33.291Z,51.216156
2023-04-14T05:48:33.512Z,51.216213
2023-04-14T05:49:33.238Z,51.216137
2023-04-14T05:50:33.242Z,51.216171
2023-04-14T05:51:33.235Z,51.216175
2023-04-14T05:52:33.233Z,51.216129
2023-04-14T05:53:33.223Z,51.216175
2023-04-14T05:54:33.201Z,51.216145
2023-04-14T05:55:33.203Z,51.216114
2023-04-14T05:56:33.221Z,51.216125
2023-04-14T05:57:33.191Z,51.216095
2023-04-14T05:58:33.228Z,51.216087
2023-04-14T05:59:33.181Z,51.216141
2023-04-14T06:00:33.169Z,51.216167
2023-04-14T06:01:33.248Z,51.216064
2023-04-14T06:02:33.297Z,51.216042
2023-04-14T06:03:33.382Z,51.216091
2023-04-14T06:04:33.258Z,51.216015
2023-04-14T06:05:33.178Z,51.215950
2023-04-14T06:06:33.139Z,51.215961
2023-04-14T06:07:33.135Z,51.216064
2023-04-14T06:08:33.124Z,51.216034
2023-04-14T06:09:33.115Z,51.215988
2023-04-14T06:10:33.144Z,51.216053
2023-04-14T06:11:33.104Z,51.215969
2023-04-14T06:12:33.111Z,51.216133
2023-04-14T06:13:35.574Z,51.216034
2023-04-14T06:14:33.084Z,51.216000
2023-04-14T06:15:33.123Z,51.216064
2023-04-14T06:16:34.006Z,51.216156
2023-04-14T06:17:33.099Z,51.216106
2023-04-14T06:18:33.121Z,51.215981
2023-04-14T06:19:33.057Z,51.216030
2023-04-14T06:20:33.174Z,51.216114
2023-04-14T06:21:33.064Z,51.216122
2023-04-14T06:22:33.121Z,51.216087
2023-04-14T06:23:33.052Z,51.216099
2023-04-14T06:24:33.038Z,51.216106
2023-04-14T06:25:33.005Z,51.216148
2023-04-14T06:26:33.046Z,51.216167
2023-04-14T06:27:33.038Z,51.216164
2023-04-14T06:28:33.011Z,51.216099
2023-04-14T06:29:32.983Z,51.216072
2023-04-14T06:30:32.984Z,51.216122
2023-04-14T06:31:33.009Z,51.216087
2023-04-14T06:32:33.156Z,51.216209
2023-04-14T06:33:32.976Z,51.216202
2023-04-14T06:34:32.989Z,51.216213
2023-04-14T06:35:34.135Z,51.216160
2023-04-14T06:36:33.939Z,51.216190
2023-04-14T06:37:32.961Z,51.216240
2023-04-14T06:38:32.945Z,51.216228
2023-04-14T06:39:32.925Z,51.216133
2023-04-14T06:40:32.934Z,51.216152
2023-04-14T06:41:32.910Z,51.215996
2023-04-14T06:42:33.015Z,51.216003
2023-04-14T06:43:32.892Z,51.216049
2023-04-14T06:44:32.889Z,51.216122
2023-04-14T06:45:32.905Z,51.216103
2023-04-14T06:46:33.039Z,51.216129
2023-04-14T06:47:32.897Z,51.216042
2023-04-14T06:48:32.874Z,51.216057
2023-04-14T06:49:32.862Z,51.216022
2023-04-14T06:50:32.856Z,51.216038
2023-04-14T06:51:32.847Z,51.215961
2023-04-14T06:52:32.854Z,51.216057
2023-04-14T06:53:32.858Z,51.215931
2023-04-14T06:54:32.827Z,51.215977
2023-04-14T06:55:32.823Z,51.216064
2023-04-14T06:56:32.804Z,51.216068
2023-04-14T06:57:32.808Z,51.216133
2023-04-14T06:58:32.909Z,51.216080
2023-04-14T06:59:32.801Z,51.216080
2023-04-14T07:00:32.787Z,51.216007
2023-04-14T07:01:32.895Z,51.215981
2023-04-14T07:02:32.895Z,51.215912
2023-04-14T07:03:32.814Z,51.215961
2023-04-14T07:04:32.826Z,51.215912
2023-04-14T07:05:32.757Z,51.215942
2023-04-14T07:06:32.743Z,51.215923
2023-04-14T07:07:32.739Z,51.215958
2023-04-14T07:08:32.731Z,51.216015
2023-04-14T07:09:32.777Z,51.215939
2023-04-14T07:10:32.736Z,51.216049
2023-04-14T07:11:32.734Z,51.216114
2023-04-14T07:12:32.709Z,51.216084
2023-04-14T07:13:32.704Z,51.216068
2023-04-14T07:14:32.729Z,51.216106
2023-04-14T07:15:32.731Z,51.216122
2023-04-14T07:16:32.744Z,51.216087
2023-04-14T07:17:32.708Z,51.216080
2023-04-14T07:18:32.671Z,51.215843
2023-04-14T07:19:32.705Z,51.215851
2023-04-14T07:20:32.681Z,51.215866
2023-04-14T07:21:32.655Z,51.215843
2023-04-14T07:22:32.644Z,51.215904
2023-04-14T07:23:32.633Z,51.215992
2023-04-14T07:24:32.626Z,51.216011
2023-04-14T07:25:32.657Z,51.215916
2023-04-14T07:26:32.616Z,51.215927
2023-04-14T07:27:32.611Z,51.215965
2023-04-14T07:28:32.636Z,51.216095
2023-04-14T07:29:32.597Z,51.216114
2023-04-14T07:30:32.624Z,51.216084
2023-04-14T07:31:32.623Z,51.216019
2023-04-14T07:32:32.674Z,51.215996
2023-04-14T07:33:32.558Z,51.216099
2023-04-14T07:34:32.555Z,51.216171
2023-04-14T07:35:32.556Z,51.216156
2023-04-14T07:36:32.574Z,51.216129
2023-04-14T07:37:32.547Z,51.216106
2023-04-14T07:38:32.548Z,51.216118
2023-04-14T07:39:32.532Z,51.216141
2023-04-14T07:40:32.524Z,51.216068
2023-04-14T07:41:32.511Z,51.216064
2023-04-14T07:42:32.533Z,51.216129
2023-04-14T07:43:32.493Z,51.216103
2023-04-14T07:44:32.504Z,51.216175
2023-04-14T07:45:32.482Z,51.216190
2023-04-14T07:46:32.479Z,51.216122
2023-04-14T07:47:32.519Z,51.216057
2023-04-14T07:48:32.484Z,51.216042
2023-04-14T07:49:32.487Z,51.216061
2023-04-14T07:50:32.453Z,51.215981
2023-04-14T07:51:32.447Z,51.216022
2023-04-14T07:52:32.447Z,51.215958
2023-04-14T07:53:32.436Z,51.216042
2023-04-14T07:54:32.438Z,51.216110
2023-04-14T07:55:32.450Z,51.216057
2023-04-14T07:56:32.410Z,51.216007
2023-04-14T07:57:32.408Z,51.216007
2023-04-14T07:58:32.390Z,51.215996
2023-04-14T07:59:32.408Z,51.215950
2023-04-14T08:00:32.389Z,51.216068
2023-04-14T08:01:32.393Z,51.216129
2023-04-14T08:02:32.507Z,51.216122
2023-04-14T08:03:32.648Z,51.216049
2023-04-14T08:04:32.407Z,51.216103
2023-04-14T08:05:32.414Z,51.216064
2023-04-14T08:06:32.364Z,51.216064
2023-04-14T08:07:32.350Z,51.216053
2023-04-14T08:08:32.354Z,51.216064
2023-04-14T08:09:32.335Z,51.216038
2023-04-14T08:10:32.345Z,51.216049
2023-04-14T08:11:32.313Z,51.215969
2023-04-14T08:12:32.306Z,51.216030
2023-04-14T08:13:32.300Z,51.216053
2023-04-14T08:14:32.294Z,51.216095
2023-04-14T08:15:32.343Z,51.216095
2023-04-14T08:16:32.350Z,51.216011
2023-04-14T08:17:32.306Z,51.216011
2023-04-14T08:18:32.266Z,51.215992
2023-04-14T08:19:32.509Z,51.215996
2023-04-14T08:20:32.244Z,51.216064
2023-04-14T08:21:32.242Z,51.216053
2023-04-14T08:22:32.238Z,51.216072
2023-04-14T08:23:32.228Z,51.216122
2023-04-14T08:24:32.284Z,51.216095
2023-04-14T08:25:32.226Z,51.216042
2023-04-14T08:26:32.210Z,51.216026
2023-04-14T08:27:32.199Z,51.216061
2023-04-14T08:28:32.205Z,51.216030
2023-04-14T08:29:32.203Z,51.216022
2023-04-14T08:30:32.189Z,51.216000
2023-04-14T08:31:32.231Z,51.216015
2023-04-14T08:32:32.217Z,51.216026
2023-04-14T08:33:32.162Z,51.216118
2023-04-14T08:34:32.187Z,51.216118
2023-04-14T08:35:39.238Z,51.216152
2023-04-14T08:36:33.183Z,51.216007
2023-04-14T08:37:32.124Z,51.215961
2023-04-14T08:38:32.134Z,51.216049
2023-04-14T08:39:32.131Z,51.215958
2023-04-14T08:40:32.118Z,51.215950
2023-04-14T08:41:32.126Z,51.216145
2023-04-14T08:42:32.102Z,51.216057
2023-04-14T08:43:32.103Z,51.216061
2023-04-14T08:44:32.095Z,51.216026
2023-04-14T08:45:32.139Z,51.215942
2023-04-14T08:46:32.073Z,51.216022
2023-04-14T08:47:32.152Z,51.215988
2023-04-14T08:48:32.112Z,51.215973
2023-04-14T08:49:32.062Z,51.215992
2023-04-14T08:50:32.050Z,51.215858
2023-04-14T08:51:32.074Z,51.215977
2023-04-14T08:52:32.044Z,51.215977
2023-04-14T08:53:32.021Z,51.215919
2023-04-14T08:54:32.016Z,51.215988
2023-04-14T08:55:32.014Z,51.216076
2023-04-14T08:56:32.028Z,51.216106
2023-04-14T08:57:32.000Z,51.216026
2023-04-14T08:58:32.003Z,51.216038
2023-04-14T08:59:32.000Z,51.216084
2023-04-14T09:00:31.978Z,51.216095
2023-04-14T09:01:34.307Z,51.216053
2023-04-14T09:02:33.078Z,51.216087
2023-04-14T09:03:32.178Z,51.216003
2023-04-14T09:04:32.163Z,51.216213
2023-04-14T09:05:31.958Z,51.216240
2023-04-14T09:06:31.956Z,51.216156
2023-04-14T09:07:31.935Z,51.216183
2023-04-14T09:08:31.943Z,51.216099
2023-04-14T09:09:31.936Z,51.215870
2023-04-14T09:10:31.910Z,51.215988
2023-04-14T09:11:31.932Z,51.216015
2023-04-14T09:12:31.915Z,51.216106
2023-04-14T09:13:31.898Z,51.216125
2023-04-14T09:14:31.895Z,51.215961
2023-04-14T09:15:31.893Z,51.216022
2023-04-14T09:16:31.930Z,51.216022
2023-04-14T09:17:31.902Z,51.216007
2023-04-14T09:18:34.385Z,51.216019
2023-04-14T09:19:31.855Z,51.216160
2023-04-14T09:20:37.338Z,51.216194
2023-04-14T09:21:53.830Z,51.216110
2023-04-14T09:22:32.836Z,51.216061
2023-04-14T09:23:31.816Z,51.216125
2023-04-14T09:24:32.740Z,51.216038
2023-04-14T09:25:32.833Z,51.216080
2023-04-14T09:26:31.810Z,51.216175
2023-04-14T09:27:31.802Z,51.216095
2023-04-14T09:28:31.806Z,51.216026
2023-04-14T09:29:31.795Z,51.216183
2023-04-14T09:30:31.786Z,51.216038
2023-04-14T09:31:31.806Z,51.216042
2023-04-14T09:32:31.808Z,51.216087
2023-04-14T09:33:31.755Z,51.216206
2023-04-14T09:34:31.785Z,51.216244
2023-04-14T09:35:31.747Z,51.216072
2023-04-14T09:36:31.743Z,51.215900
2023-04-14T09:37:31.715Z,51.215946
2023-04-14T09:38:31.719Z,51.216076
2023-04-14T09:39:31.715Z,51.216068
2023-04-14T09:40:31.806Z,51.216061
2023-04-14T09:41:31.691Z,51.216000
2023-04-14T09:42:31.687Z,51.215939
2023-04-14T09:43:31.699Z,51.215916
2023-04-14T09:44:31.690Z,51.216068
2023-04-14T09:45:31.688Z,51.216064
2023-04-14T09:46:31.735Z,51.215961
2023-04-14T09:47:31.706Z,51.216042
2023-04-14T09:48:31.654Z,51.216030
2023-04-14T09:49:31.658Z,51.216007
2023-04-14T09:50:31.634Z,51.216045
2023-04-14T09:51:31.659Z,51.215977
2023-04-14T09:52:31.637Z,51.215954
2023-04-14T09:53:31.612Z,51.216015
2023-04-14T09:54:31.632Z,51.215981
2023-04-14T09:55:31.598Z,51.216057
2023-04-14T09:56:31.631Z,51.216125
2023-04-14T09:57:31.628Z,51.216179
2023-04-14T09:58:31.653Z,51.216026
2023-04-14T09:59:31.586Z,51.216000
2023-04-14T10:00:31.583Z,51.216133
2023-04-14T10:01:31.713Z,51.216129
2023-04-14T10:02:31.701Z,51.216118
2023-04-14T10:03:31.615Z,51.216053
2023-04-14T10:04:31.591Z,51.216091
2023-04-14T10:05:34.599Z,51.216141
2023-04-14T10:06:32.585Z,51.216057
2023-04-14T10:07:31.548Z,51.216099
2023-04-14T10:08:31.557Z,51.216026
2023-04-14T10:09:31.530Z,51.215981
2023-04-14T10:10:31.535Z,51.216030
2023-04-14T10:11:31.526Z,51.216106
2023-04-14T10:12:31.520Z,51.216003
2023-04-14T10:13:31.534Z,51.215977
2023-04-14T10:14:31.503Z,51.216000
2023-04-14T10:15:31.510Z,51.216064
2023-04-14T10:16:31.553Z,51.216095
2023-04-14T10:17:33.917Z,51.216000
2023-04-14T10:18:31.500Z,51.215919
2023-04-14T10:19:31.497Z,51.215908
2023-04-14T10:20:31.478Z,51.215988
2023-04-14T10:21:31.470Z,51.216049
2023-04-14T10:22:32.053Z,51.215931
2023-04-14T10:23:31.467Z,51.215881
2023-04-14T10:24:31.453Z,51.215900
2023-04-14T10:25:31.457Z,51.215954
2023-04-14T10:26:31.488Z,51.216003
2023-04-14T10:27:31.426Z,51.215939
2023-04-14T10:28:33.146Z,51.216026
2023-04-14T10:29:32.418Z,51.216118
2023-04-14T10:30:31.636Z,51.216076
2023-04-14T10:31:31.461Z,51.215973
2023-04-14T10:32:31.431Z,51.215973
2023-04-14T10:33:31.394Z,51.216015
2023-04-14T10:34:31.407Z,51.216114
2023-04-14T10:35:31.398Z,51.216091
2023-04-14T10:36:31.395Z,51.215992
2023-04-14T10:37:31.370Z,51.215992
2023-04-14T10:38:32.380Z,51.216053
2023-04-14T10:39:31.366Z,51.216061
2023-04-14T10:40:31.374Z,51.216049
2023-04-14T10:41:31.360Z,51.216103
2023-04-14T10:42:31.346Z,51.216103
2023-04-14T10:43:31.348Z,51.216164
2023-04-14T10:44:31.331Z,51.215950
2023-04-14T10:45:31.356Z,51.216022
2023-04-14T10:46:31.373Z,51.216125
2023-04-14T10:47:31.379Z,51.216152
2023-04-14T10:48:31.314Z,51.215988
2023-04-14T10:49:31.353Z,51.216053
2023-04-14T10:50:31.321Z,51.215931
2023-04-14T10:51:31.354Z,51.216049
2023-04-14T10:52:31.330Z,51.216053
2023-04-14T10:53:31.291Z,51.216057
2023-04-14T10:54:31.282Z,51.216042
2023-04-14T10:55:32.114Z,51.216045
2023-04-14T10:56:31.300Z,51.215988
2023-04-14T10:57:31.275Z,51.216080
2023-04-14T10:58:31.283Z,51.216110
2023-04-14T10:59:31.258Z,51.216305
2023-04-14T11:00:31.259Z,51.216198
2023-04-14T11:01:31.389Z,51.216183
2023-04-14T11:02:31.568Z,51.216003
2023-04-14T11:03:31.388Z,51.216057
2023-04-14T11:04:31.270Z,51.216057
2023-04-14T11:05:31.226Z,51.216152
2023-04-14T11:06:31.209Z,51.216080
2023-04-14T11:07:31.233Z,51.216152
2023-04-14T11:08:31.202Z,51.216091
2023-04-14T11:09:31.229Z,51.216038
2023-04-14T11:10:31.190Z,51.216007
2023-04-14T11:11:31.198Z,51.215988
2023-04-14T11:12:31.182Z,51.216221
2023-04-14T11:13:31.202Z,51.216270
2023-04-14T11:14:31.159Z,51.216351
2023-04-14T11:15:31.166Z,51.216320
2023-04-14T11:16:31.229Z,51.216133
2023-04-14T11:17:31.260Z,51.216499
2023-04-14T11:18:31.188Z,51.216618
2023-04-14T11:19:31.123Z,51.216854
2023-04-14T11:20:31.147Z,51.216782
2023-04-14T11:21:31.154Z,51.216919
2023-04-14T11:22:31.118Z,51.217014
2023-04-14T11:23:31.147Z,51.216965
2023-04-14T11:24:31.106Z,51.216774